Latest Weather Observations for Rosslyn Bay Harbour

IDQ60801

Issued at 11:05 pm EST Monday 20 October 2014 (issued every 30 minutes, with the page automatically refreshed every 10 minutes)

About weather observations | Map of weather stations | Latest weather observations for QLD | Other Formats
Station Details ID: 033208 Name: ROSSLYN BAY NTC AWS Lat: -23.16 Lon: 150.79 Height: 0.0 m
Data from the previous 72 hours. | See also: Recent months for locations in Queensland
Date/Time
EST
Temp
°C
App
Temp
°C
Dew
Point
Rel
Hum
%
Delta-T
°C
Wind Press
QNH
hPa
Press
MSL
hPa
Rain
since 9 am
mm
Dir
 
Spd
km/h
Gust
km/h
Spd
kts
Gust
kts
20/11:00pm 22.1 - - - - SW 7 22 4 12 1023.6 1023.6 -
20/10:30pm 22.0 - - - - SSW 9 19 5 10 1023.7 1023.7 -
20/10:00pm 21.9 - - - - SSW 9 22 5 12 1023.7 1023.7 -
20/09:30pm 21.9 - - - - SW 7 19 4 10 1023.6 1023.6 -
20/09:00pm 21.9 - - - - S 11 24 6 13 1023.5 1023.5 -
20/08:30pm 21.8 - - - - SSW 7 20 4 11 1023.1 1023.1 -
20/08:00pm 21.8 - - - - S 7 19 4 10 1022.7 1022.7 -
20/07:30pm 21.8 - - - - S 7 17 4 9 1022.3 1022.3 -
20/07:00pm 21.8 - - - - S 9 22 5 12 1021.8 1021.8 -
20/06:30pm 22.1 - - - - S 7 19 4 10 1021.3 1021.3 -
20/06:00pm 22.2 - - - - SW 7 17 4 9 1020.8 1020.8 -
20/05:30pm 22.6 - - - - SSW 7 15 4 8 1020.6 1020.6 -
20/05:00pm 22.7 - - - - SW 7 17 4 9 1020.1 1020.1 -
20/04:30pm 23.0 - - - - SSW 9 17 5 9 1020.0 1020.0 -
20/04:00pm 22.9 - - - - S 9 20 5 11 1019.9 1019.9 -
20/03:30pm 23.1 - - - - SSW 7 19 4 10 1020.1 1020.1 -
20/03:00pm 22.7 - - - - S 9 20 5 11 1020.2 1020.2 -
20/02:30pm 22.5 - - - - S 11 26 6 14 1020.4 1020.4 -
20/02:00pm 22.6 - - - - S 15 26 8 14 1020.7 1020.7 -
20/01:30pm 22.5 - - - - S 15 24 8 13 1021.1 1021.1 -
20/01:00pm 22.4 - - - - S 17 30 9 16 1021.5 1021.5 -
20/12:30pm 22.2 - - - - S 19 28 10 15 1021.8 1021.8 -
20/12:00pm 22.2 - - - - S 19 30 10 16 1022.3 1022.3 -
20/11:30am 22.0 - - - - S 17 30 9 16 1022.6 1022.6 -
20/11:00am 21.9 - - - - S 19 30 10 16 1023.2 1023.2 -
20/10:30am 21.9 - - - - S 17 30 9 16 1023.5 1023.5 -
20/10:00am 21.7 - - - - S 15 28 8 15 1023.8 1023.8 -
20/09:30am 21.6 - - - - S 17 30 9 16 1024.2 1024.2 -
20/09:00am 21.5 - - - - S 13 26 7 14 1024.4 1024.4 -
20/08:30am 21.3 - - - - S 15 28 8 15 1024.4 1024.4 -
20/08:00am 21.0 - - - - S 15 32 8 17 1024.3 1024.3 -
20/07:30am 20.9 - - - - S 15 28 8 15 1024.0 1024.0 -
20/07:00am 20.8 - - - - S 17 30 9 16 1023.8 1023.8 -
20/06:30am 20.5 - - - - S 17 32 9 17 1023.5 1023.5 -
20/06:00am 20.5 - - - - S 15 32 8 17 1023.0 1023.0 -
20/05:30am 18.3 - - - - SSW 7 15 4 8 1022.6 1022.6 -
20/05:00am 19.4 - - - - S 11 22 6 12 1022.4 1022.4 -
20/04:30am 21.0 - - - - S 15 26 8 14 1022.2 1022.2 -
20/04:00am 21.3 - - - - S 13 24 7 13 1021.9 1021.9 -
20/03:30am 21.3 - - - - SSW 11 22 6 12 1021.8 1021.8 -
20/03:00am 21.4 - - - - S 13 22 7 12 1021.6 1021.6 -
20/02:30am 21.3 - - - - S 11 24 6 13 1021.7 1021.7 -
20/02:00am 21.4 - - - - S 13 20 7 11 1021.8 1021.8 -
20/01:30am 21.6 - - - - S 13 22 7 12 1022.1 1022.1 -
20/01:00am 21.5 - - - - S 15 30 8 16 1022.4 1022.4 -
20/12:30am 21.6 - - - - S 11 24 6 13 1022.8 1022.8 -
20/12:00am 21.9 - - - - S 13 24 7 13 1023.2 1023.2 -
 
Date/Time
EST
Temp
°C
App
Temp
°C
Dew
Point
Rel
Hum
%
Delta-T
°C
Wind Press
QNH
hPa
Press
MSL
hPa
Rain
since 9 am
mm
Dir
 
Spd
km/h
Gust
km/h
Spd
kts
Gust
kts
19/11:30pm 21.9 - - - - S 13 28 7 15 1023.6 1023.6 -
19/11:00pm 22.0 - - - - SSW 11 26 6 14 1023.9 1023.9 -
19/10:30pm 22.1 - - - - SSW 9 26 5 14 1024.1 1024.1 -
19/10:00pm 22.1 - - - - S 15 26 8 14 1024.2 1024.2 -
19/09:30pm 22.2 - - - - S 11 26 6 14 1024.0 1024.0 -
19/09:00pm 22.3 - - - - S 13 24 7 13 1024.1 1024.1 -
19/08:30pm 22.3 - - - - S 11 26 6 14 1023.9 1023.9 -
19/08:00pm 22.4 - - - - SSW 9 22 5 12 1023.5 1023.5 -
19/07:30pm 22.5 - - - - SSW 11 28 6 15 1023.1 1023.1 -
19/07:00pm 22.4 - - - - SSW 11 28 6 15 1023.0 1023.0 -
19/06:30pm 22.5 - - - - SSW 11 32 6 17 1022.6 1022.6 -
19/06:00pm 22.5 - - - - SSW 11 35 6 19 1022.4 1022.4 -
19/05:30pm 22.8 - - - - SSW 11 26 6 14 1022.2 1022.2 -
19/05:00pm 22.9 - - - - SW 11 26 6 14 1021.9 1021.9 -
19/04:30pm 23.2 - - - - S 13 30 7 16 1021.7 1021.7 -
19/04:00pm 23.2 - - - - SSW 9 26 5 14 1021.4 1021.4 -
19/03:30pm 23.3 - - - - SSW 11 26 6 14 1021.3 1021.3 -
19/03:00pm 23.4 - - - - SSW 11 26 6 14 1021.4 1021.4 -
19/02:30pm 23.2 - - - - SSW 9 26 5 14 1021.5 1021.5 -
19/02:00pm 23.2 - - - - S 20 32 11 17 1021.9 1021.9 -
19/01:30pm 23.4 - - - - S 15 26 8 14 1022.2 1022.2 -
19/01:00pm 23.4 - - - - S 15 32 8 17 1022.5 1022.5 -
19/12:30pm 23.3 - - - - S 20 35 11 19 1022.9 1022.9 -
19/12:00pm 23.0 - - - - S 22 33 12 18 1023.2 1023.2 -
19/11:30am 23.1 - - - - S 22 35 12 19 1023.6 1023.6 -
19/11:00am 23.0 - - - - S 19 32 10 17 1023.8 1023.8 -
19/10:30am 22.8 - - - - S 20 39 11 21 1024.1 1024.1 -
19/10:00am 22.8 - - - - S 22 37 12 20 1024.4 1024.4 -
19/09:30am 22.7 - - - - S 24 39 13 21 1024.3 1024.3 -
19/09:00am 22.4 - - - - S 22 37 12 20 1024.3 1024.3 -
19/08:30am 22.0 - - - - S 17 30 9 16 1024.6 1024.6 -
19/08:00am 21.6 - - - - S 17 30 9 16 1024.5 1024.5 -
19/07:30am 21.1 - - - - S 13 28 7 15 1024.2 1024.2 -
19/07:00am 21.2 - - - - S 11 24 6 13 1024.0 1024.0 -
19/06:30am 20.9 - - - - S 13 28 7 15 1023.6 1023.6 -
19/06:00am 20.9 - - - - S 13 30 7 16 1023.2 1023.2 -
19/05:30am 21.3 - - - - S 13 24 7 13 1022.8 1022.8 -
19/05:00am 20.6 - - - - S 17 30 9 16 1022.7 1022.7 -
19/04:30am 22.1 - - - - S 19 26 10 14 1022.3 1022.3 -
19/04:00am 22.0 - - - - S 15 26 8 14 1022.2 1022.2 -
19/03:30am 22.1 - - - - S 19 32 10 17 1022.2 1022.2 -
19/03:00am 22.1 - - - - S 19 30 10 16 1022.2 1022.2 -
19/02:30am 22.1 - - - - S 13 26 7 14 1022.3 1022.3 -
19/02:00am 22.3 - - - - S 17 35 9 19 1022.4 1022.4 -
19/01:30am 22.4 - - - - S 13 30 7 16 1022.4 1022.4 -
19/01:00am 22.2 - - - - S 17 26 9 14 1022.6 1022.6 -
19/12:30am 22.4 - - - - S 17 28 9 15 1023.0 1023.0 -
19/12:00am 22.4 - - - - S 19 33 10 18 1023.1 1023.1 -
 
Date/Time
EST
Temp
°C
App
Temp
°C
Dew
Point
Rel
Hum
%
Delta-T
°C
Wind Press
QNH
hPa
Press
MSL
hPa
Rain
since 9 am
mm
Dir
 
Spd
km/h
Gust
km/h
Spd
kts
Gust
kts
18/11:30pm 22.4 - - - - S 11 22 6 12 1023.4 1023.4 -
18/11:00pm 22.4 - - - - S 15 28 8 15 1023.6 1023.6 -
18/10:30pm 22.6 - - - - S 15 26 8 14 1023.7 1023.7 -
18/10:00pm 22.6 - - - - S 19 32 10 17 1023.5 1023.5 -
18/09:30pm 22.8 - - - - S 19 33 10 18 1023.6 1023.6 -
18/09:00pm 22.7 - - - - S 15 26 8 14 1023.6 1023.6 -
18/08:30pm 22.8 - - - - S 15 26 8 14 1023.4 1023.4 -
18/08:00pm 22.7 - - - - S 13 24 7 13 1023.0 1023.0 -
18/07:30pm 22.7 - - - - S 13 24 7 13 1022.6 1022.6 -
18/07:00pm 22.9 - - - - S 13 26 7 14 1022.3 1022.3 -
18/06:30pm 22.7 - - - - S 11 24 6 13 1021.9 1021.9 -
18/06:00pm 22.8 - - - - S 11 28 6 15 1021.4 1021.4 -
18/05:30pm 23.0 - - - - S 13 33 7 18 1021.0 1021.0 -
18/05:00pm 23.4 - - - - S 13 28 7 15 1020.5 1020.5 -
18/04:30pm 23.7 - - - - S 11 22 6 12 1020.2 1020.2 -
18/04:00pm 23.7 - - - - S 11 24 6 13 1020.2 1020.2 -
18/03:30pm 23.8 - - - - S 9 24 5 13 1020.0 1020.0 -
18/03:00pm 23.8 - - - - S 11 32 6 17 1020.1 1020.1 -
18/02:30pm 23.7 - - - - S 13 24 7 13 1020.6 1020.6 -
18/02:00pm 23.5 - - - - S 22 33 12 18 1020.9 1020.9 -
18/01:30pm 23.6 - - - - S 19 30 10 16 1021.2 1021.2 -
18/01:00pm 23.5 - - - - S 19 28 10 15 1021.4 1021.4 -
18/12:30pm 23.3 - - - - S 20 32 11 17 1021.6 1021.6 -
18/12:00pm 23.2 - - - - S 19 28 10 15 1022.1 1022.1 -
18/11:30am 23.3 - - - - S 17 30 9 16 1022.5 1022.5 -
18/11:00am 23.2 - - - - S 19 28 10 15 1022.7 1022.7 -
18/10:30am 23.2 - - - - S 15 28 8 15 1023.0 1023.0 -
18/10:00am 23.0 - - - - S 15 30 8 16 1023.0 1023.0 -
18/09:30am 22.9 - - - - S 17 28 9 15 1023.0 1023.0 -
18/09:00am 22.8 - - - - S 13 26 7 14 1022.9 1022.9 -
18/08:30am 22.9 - - - - S 17 28 9 15 1022.6 1022.6 -
18/08:00am 22.8 - - - - S 17 28 9 15 1022.4 1022.4 -
18/07:30am 22.6 - - - - S 15 26 8 14 1022.0 1022.0 -
18/07:00am 22.5 - - - - S 13 22 7 12 1021.6 1021.6 -
18/06:30am 22.4 - - - - S 15 28 8 15 1021.0 1021.0 -
18/06:00am 22.4 - - - - S 17 28 9 15 1020.5 1020.5 -
18/05:30am 22.2 - - - - S 13 20 7 11 1020.1 1020.1 -
18/05:00am 22.2 - - - - S 13 19 7 10 1019.8 1019.8 -
18/04:30am 22.2 - - - - S 13 19 7 10 1019.4 1019.4 -
18/04:00am 22.2 - - - - S 11 19 6 10 1019.1 1019.1 -
18/03:30am 22.3 - - - - S 6 15 3 8 1019.1 1019.1 -
18/03:00am 22.3 - - - - SSW 7 15 4 8 1018.9 1018.9 -
18/02:30am 22.3 - - - - S 7 17 4 9 1018.8 1018.8 -
18/02:00am 22.3 - - - - SSW 6 15 3 8 1018.8 1018.8 -
18/01:30am 22.4 - - - - SSW 6 13 3 7 1018.8 1018.8 -
18/01:00am 22.4 - - - - SSW 6 13 3 7 1019.1 1019.1 -
18/12:30am 22.4 - - - - S 6 13 3 7 1019.2 1019.2 -
18/12:00am 22.5 - - - - SSW 4 11 2 6 1019.4 1019.4 -
 
Date/Time
EST
Temp
°C
App
Temp
°C
Dew
Point
Rel
Hum
%
Delta-T
°C
Wind Press
QNH
hPa
Press
MSL
hPa
Rain
since 9 am
mm
Dir
 
Spd
km/h
Gust
km/h
Spd
kts
Gust
kts
17/11:30pm 22.7 - - - - SSW 6 13 3 7 1019.6 1019.6 -

Other Formats:

Comma delimited format used in spreadsheet applications
http://www.bom.gov.au/fwo/IDQ60801/IDQ60801.95298.axf

JavaScript Object Notation format (JSON) in row-major order
http://www.bom.gov.au/fwo/IDQ60801/IDQ60801.95298.json